Time;durP1;ratioP1;P1;durP2;ratioP2;P2;SDS_P1;SDS_P2;PMS_P1;PMS_P2;Temp;Humidity;BMP_temperature;BMP_pressure;BME280_temperature;BME280_humidity;BME280_pressure;Samples;Min_cycle;Max_cycle;Signal;HPM_P1;HPM_P2
2020/12/22 00:00:28;;;;;;;3.23;2.50;;;9.30;99.90;;;;;;4950886;28;20621;-85
2020/12/22 00:02:54;;;;;;;3.00;2.67;;;9.30;99.90;;;;;;4945583;28;20441;-91
2020/12/22 00:05:29;;;;;;;2.67;2.47;;;9.30;99.90;;;;;;4950898;28;20185;-94
2020/12/22 00:07:55;;;;;;;2.40;2.20;;;9.40;99.90;;;;;;4949559;28;20192;-85
2020/12/22 00:10:21;;;;;;;2.07;1.97;;;9.30;99.90;;;;;;4950815;28;20530;-86
2020/12/22 00:12:48;;;;;;;2.43;2.23;;;9.40;99.90;;;;;;4949213;28;20192;-85
2020/12/22 00:15:14;;;;;;;2.53;2.33;;;9.30;99.90;;;;;;4950424;28;20459;-85
2020/12/22 00:17:44;;;;;;;2.03;1.83;;;9.40;99.90;;;;;;4951112;28;20185;-86
2020/12/22 00:20:11;;;;;;;1.83;1.73;;;9.40;99.90;;;;;;4950022;28;20312;-85
2020/12/22 00:22:36;;;;;;;1.83;1.70;;;9.50;99.90;;;;;;4950303;28;20444;-86
2020/12/22 00:25:04;;;;;;;1.70;1.60;;;9.50;99.90;;;;;;4951072;28;20457;-86
2020/12/22 00:27:33;;;;;;;1.83;1.73;;;9.60;99.90;;;;;;4950239;28;20185;-86
2020/12/22 00:30:00;;;;;;;1.60;1.50;;;9.60;99.90;;;;;;4949323;28;20560;-86
2020/12/22 00:32:26;;;;;;;1.47;1.37;;;9.70;99.90;;;;;;4949338;28;20974;-86
2020/12/22 00:34:52;;;;;;;1.60;1.50;;;9.70;99.90;;;;;;4951197;28;20446;-87
2020/12/22 00:37:17;;;;;;;1.40;1.30;;;9.70;99.90;;;;;;4950053;28;20186;-88
2020/12/22 00:39:43;;;;;;;1.37;1.27;;;9.70;99.90;;;;;;4949489;28;20228;-91
2020/12/22 00:42:11;;;;;;;1.13;1.07;;;9.70;99.90;;;;;;4968537;28;20187;-96
2020/12/22 00:44:39;;;;;;;1.10;1.00;;;9.80;99.90;;;;;;4948774;28;20204;-95
2020/12/22 00:47:07;;;;;;;1.10;1.00;;;9.90;99.90;;;;;;4956152;28;20445;-96
2020/12/22 00:52:05;;;;;;;2.03;1.93;;;10.00;99.90;;;;;;4955714;28;20444;-95
2020/12/22 00:57:26;;;;;;;0.70;0.70;;;10.00;99.90;;;;;;4951966;28;20184;-93
2020/12/22 00:59:51;;;;;;;0.73;0.60;;;10.10;99.90;;;;;;4950376;28;20528;-91
2020/12/22 01:02:17;;;;;;;0.70;0.60;;;10.10;99.90;;;;;;4950251;28;20186;-91
2020/12/22 01:04:45;;;;;;;1.20;0.77;;;10.20;99.90;;;;;;4949822;28;20202;-93
2020/12/22 01:07:11;;;;;;;0.70;0.70;;;10.20;99.90;;;;;;4951421;29;20272;-93
2020/12/22 01:09:39;;;;;;;0.80;0.80;;;10.20;99.90;;;;;;4950886;28;20528;-93
2020/12/22 01:12:06;;;;;;;0.70;0.70;;;10.20;99.90;;;;;;4949016;28;20494;-87
2020/12/22 01:14:32;;;;;;;0.80;0.73;;;10.20;99.90;;;;;;4946824;28;20457;-94
2020/12/22 01:16:57;;;;;;;1.53;0.63;;;10.30;99.90;;;;;;4950953;29;20426;-83
2020/12/22 01:19:23;;;;;;;0.70;0.70;;;10.20;99.90;;;;;;4950198;28;20573;-82
2020/12/22 01:21:55;;;;;;;0.73;0.73;;;10.30;99.90;;;;;;4948466;28;20213;-82
2020/12/22 01:24:21;;;;;;;1.23;0.80;;;10.30;99.90;;;;;;4949932;28;20220;-82
2020/12/22 01:26:49;;;;;;;0.90;0.90;;;10.30;99.90;;;;;;4950376;28;20761;-82
2020/12/22 01:29:14;;;;;;;1.47;0.80;;;10.30;99.90;;;;;;4947403;28;20191;-81
2020/12/22 01:31:40;;;;;;;1.00;0.70;;;10.30;99.90;;;;;;4945857;28;20460;-89
2020/12/22 01:34:05;;;;;;;0.60;0.60;;;10.40;99.90;;;;;;4948495;28;20641;-89
2020/12/22 01:36:35;;;;;;;0.90;0.70;;;10.40;99.90;;;;;;4947832;28;20637;-90
2020/12/22 01:39:03;;;;;;;0.87;0.70;;;10.40;99.90;;;;;;4947300;28;20210;-90
2020/12/22 01:41:35;;;;;;;0.77;0.77;;;10.40;99.90;;;;;;4948501;28;20490;-90
2020/12/22 01:44:12;;;;;;;0.50;0.50;;;10.40;99.90;;;;;;4964761;28;20846;-91
2020/12/22 01:46:44;;;;;;;0.60;0.60;;;10.50;99.90;;;;;;4950172;28;20508;-88
2020/12/22 01:49:16;;;;;;;0.80;0.60;;;10.50;99.90;;;;;;4950342;28;20818;-86
2020/12/22 01:51:43;;;;;;;1.33;0.60;;;10.50;99.90;;;;;;4946711;28;20474;-93
2020/12/22 01:54:20;;;;;;;0.50;0.50;;;10.50;99.90;;;;;;4948302;28;20445;-94
2020/12/22 01:56:46;;;;;;;0.50;0.50;;;10.50;99.90;;;;;;4949676;28;20447;-94
2020/12/22 01:59:17;;;;;;;0.90;0.70;;;10.40;99.90;;;;;;4948574;28;20485;-94
2020/12/22 02:02:09;;;;;;;0.50;0.50;;;10.40;99.90;;;;;;4949323;28;20451;-94
2020/12/22 02:04:36;;;;;;;0.93;0.70;;;10.50;99.90;;;;;;4948306;28;20494;-93
2020/12/22 02:07:04;;;;;;;3.03;0.67;;;10.50;99.90;;;;;;4948582;28;20883;-94
2020/12/22 02:09:30;;;;;;;0.60;0.47;;;10.50;99.90;;;;;;4947221;28;20857;-93
2020/12/22 02:12:07;;;;;;;0.37;0.37;;;10.50;99.90;;;;;;4951227;28;20450;-94
2020/12/22 02:14:35;;;;;;;0.40;0.40;;;10.50;99.90;;;;;;4948371;28;20416;-92
2020/12/22 02:17:12;;;;;;;0.47;0.47;;;10.50;99.90;;;;;;4949366;28;20442;-94
2020/12/22 02:19:47;;;;;;;0.50;0.40;;;10.50;99.90;;;;;;4950367;28;21002;-89
2020/12/22 02:22:13;;;;;;;0.47;0.47;;;10.50;99.90;;;;;;4947392;28;20494;-89
2020/12/22 02:24:38;;;;;;;0.83;0.60;;;10.50;99.90;;;;;;4949192;28;20253;-89
2020/12/22 02:27:05;;;;;;;0.40;0.40;;;10.50;99.90;;;;;;4946385;28;20207;-87
2020/12/22 02:29:31;;;;;;;0.50;0.50;;;10.50;99.90;;;;;;4949178;28;20190;-88
2020/12/22 02:32:00;;;;;;;0.50;0.50;;;10.50;99.90;;;;;;4946682;28;20908;-88
2020/12/22 02:34:26;;;;;;;0.40;0.40;;;10.60;99.90;;;;;;4946951;28;20454;-88
2020/12/22 02:36:52;;;;;;;0.43;0.37;;;10.60;99.90;;;;;;4948342;28;20481;-89
2020/12/22 02:39:18;;;;;;;0.40;0.40;;;10.60;99.90;;;;;;4946476;28;20514;-92
2020/12/22 02:41:43;;;;;;;0.70;0.63;;;10.70;99.90;;;;;;4948824;28;20743;-93
2020/12/22 02:44:09;;;;;;;0.40;0.40;;;10.60;99.90;;;;;;4947897;28;20195;-92
2020/12/22 02:46:35;;;;;;;0.40;0.40;;;10.60;99.90;;;;;;4948512;28;20190;-93
2020/12/22 02:49:01;;;;;;;0.93;0.40;;;10.60;99.90;;;;;;4949555;28;20191;-92
2020/12/22 02:51:32;;;;;;;0.30;0.30;;;10.60;99.90;;;;;;4946173;28;20199;-93
2020/12/22 02:54:12;;;;;;;1.80;0.77;;;10.60;99.90;;;;;;4949464;28;20446;-92
2020/12/22 02:57:03;;;;;;;0.70;0.50;;;10.60;99.90;;;;;;4948789;28;20493;-92
2020/12/22 02:59:36;;;;;;;0.40;0.40;;;10.60;99.90;;;;;;4947048;28;20517;-94
2020/12/22 03:02:18;;;;;;;0.40;0.40;;;10.60;99.90;;;;;;4946229;28;20981;-93
2020/12/22 03:04:46;;;;;;;0.40;0.40;;;10.60;99.90;;;;;;4946758;28;21024;-93
2020/12/22 03:07:11;;;;;;;0.30;0.30;;;10.60;99.90;;;;;;4948098;28;20175;-91
2020/12/22 03:09:37;;;;;;;0.50;0.50;;;10.60;99.90;;;;;;4947265;28;20892;-83
2020/12/22 03:12:03;;;;;;;0.50;0.40;;;10.70;99.90;;;;;;4949597;29;20183;-82
2020/12/22 03:14:28;;;;;;;0.90;0.30;;;10.70;99.90;;;;;;4946028;28;20637;-88
2020/12/22 03:16:54;;;;;;;2.63;0.50;;;10.70;99.90;;;;;;4946088;28;20282;-87
2020/12/22 03:19:21;;;;;;;0.50;0.50;;;10.70;99.90;;;;;;4947920;28;20305;-88
2020/12/22 03:21:46;;;;;;;0.97;0.50;;;10.70;99.90;;;;;;4947750;28;20194;-88
2020/12/22 03:24:12;;;;;;;0.93;0.50;;;10.70;99.90;;;;;;4947424;28;20451;-87
2020/12/22 03:26:38;;;;;;;1.43;0.50;;;10.70;99.90;;;;;;4947699;28;20199;-88
2020/12/22 03:29:06;;;;;;;0.40;0.40;;;10.70;99.90;;;;;;4947690;28;20202;-91
2020/12/22 03:31:41;;;;;;;0.40;0.30;;;10.70;99.90;;;;;;4946564;28;20199;-91
2020/12/22 03:34:07;;;;;;;0.70;0.50;;;10.80;99.90;;;;;;4949041;28;20506;-91
2020/12/22 03:40:04;;;;;;;0.40;0.30;;;10.90;99.90;;;;;;4949605;28;20474;-90
2020/12/22 03:42:37;;;;;;;0.77;0.30;;;10.90;99.90;;;;;;4949176;28;20781;-90
2020/12/22 03:45:07;;;;;;;0.30;0.30;;;10.80;99.90;;;;;;5016019;23;20505;-90
2020/12/22 03:47:33;;;;;;;0.40;0.30;;;10.80;99.90;;;;;;4938825;28;20885;-86
2020/12/22 03:50:18;;;;;;;1.00;0.30;;;10.80;99.90;;;;;;4932166;29;20503;-86
2020/12/22 03:52:44;;;;;;;0.20;0.20;;;10.80;99.90;;;;;;4932978;29;20451;-86
2020/12/22 03:55:10;;;;;;;0.30;0.30;;;10.90;99.90;;;;;;4932782;29;21020;-85
2020/12/22 03:58:03;;;;;;;0.30;0.30;;;10.90;99.90;;;;;;4948693;28;20243;-86
2020/12/22 04:00:38;;;;;;;0.30;0.30;;;10.90;99.90;;;;;;4931392;29;20600;-87
2020/12/22 04:03:03;;;;;;;0.37;0.30;;;10.90;99.90;;;;;;4932584;29;20502;-85
2020/12/22 04:05:29;;;;;;;0.70;0.50;;;11.00;99.90;;;;;;4938407;28;20451;-85
2020/12/22 04:07:55;;;;;;;0.50;0.40;;;11.10;99.90;;;;;;4932870;29;20623;-85
2020/12/22 04:10:20;;;;;;;1.80;0.70;;;11.20;99.90;;;;;;4931908;29;20199;-86
2020/12/22 04:12:51;;;;;;;0.40;0.40;;;11.20;99.90;;;;;;4931006;29;20287;-86
2020/12/22 04:15:17;;;;;;;1.13;0.30;;;11.20;99.90;;;;;;4947496;28;20203;-85
2020/12/22 04:17:45;;;;;;;0.50;0.23;;;11.30;99.90;;;;;;4932837;29;20447;-90
2020/12/22 04:20:11;;;;;;;0.20;0.20;;;11.40;99.90;;;;;;4933278;29;20223;-81
2020/12/22 04:22:39;;;;;;;0.30;0.20;;;11.40;99.90;;;;;;4932364;29;20435;-91
2020/12/22 04:25:05;;;;;;;0.30;0.20;;;11.40;99.90;;;;;;4946549;28;20187;-91
2020/12/22 04:27:31;;;;;;;0.50;0.30;;;11.40;99.90;;;;;;4932230;29;20494;-92
2020/12/22 04:30:04;;;;;;;0.30;0.20;;;11.40;99.90;;;;;;4931238;29;20184;-93
2020/12/22 04:32:30;;;;;;;0.20;0.20;;;11.40;99.90;;;;;;4932232;29;20207;-90
2020/12/22 04:34:56;;;;;;;0.30;0.20;;;11.40;99.90;;;;;;4932843;29;20439;-91
2020/12/22 04:37:24;;;;;;;0.53;0.33;;;11.40;99.90;;;;;;4932133;29;20977;-90
2020/12/22 04:39:52;;;;;;;0.40;0.30;;;11.50;99.90;;;;;;4930771;29;20239;-88
2020/12/22 04:42:21;;;;;;;0.30;0.30;;;11.50;99.90;;;;;;4928920;29;20599;-88
2020/12/22 04:44:55;;;;;;;0.70;0.30;;;11.50;99.90;;;;;;4930360;29;20447;-89
2020/12/22 04:47:24;;;;;;;0.60;0.40;;;11.60;99.90;;;;;;4932188;29;20440;-89
2020/12/22 04:49:53;;;;;;;0.50;0.40;;;11.60;99.90;;;;;;4929136;29;20450;-89
2020/12/22 04:52:22;;;;;;;0.63;0.63;;;11.70;99.90;;;;;;4932905;29;20518;-91
2020/12/22 04:54:50;;;;;;;0.40;0.40;;;11.70;99.90;;;;;;4947861;28;20431;-91
2020/12/22 04:57:16;;;;;;;0.50;0.43;;;11.70;99.90;;;;;;4928488;29;20802;-86
2020/12/22 04:59:44;;;;;;;1.00;0.80;;;11.70;99.90;;;;;;4930389;29;20502;-87
2020/12/22 05:04:52;;;;;;;0.40;0.30;;;11.70;99.90;;;;;;4929578;29;20455;-88
2020/12/22 05:07:18;;;;;;;0.40;0.40;;;11.70;99.90;;;;;;4938423;29;20432;-88
2020/12/22 05:09:46;;;;;;;0.40;0.30;;;11.70;99.90;;;;;;4930408;29;20191;-88
2020/12/22 05:12:12;;;;;;;0.50;0.20;;;11.70;99.90;;;;;;4931710;29;20435;-83
2020/12/22 05:14:38;;;;;;;0.20;0.20;;;11.70;99.90;;;;;;4931770;29;20455;-83
2020/12/22 05:17:06;;;;;;;0.60;0.60;;;11.70;99.90;;;;;;4931458;29;20431;-84
2020/12/22 05:19:35;;;;;;;0.30;0.20;;;11.60;99.90;;;;;;4947359;28;20219;-84
2020/12/22 05:22:11;;;;;;;0.20;0.20;;;11.60;99.90;;;;;;4929371;29;20447;-85
2020/12/22 05:24:48;;;;;;;0.30;0.20;;;11.60;99.90;;;;;;4946028;28;20457;-85
2020/12/22 05:27:30;;;;;;;0.53;0.40;;;11.60;99.90;;;;;;4929713;29;20506;-96
2020/12/22 05:30:04;;;;;;;0.53;0.30;;;11.50;99.90;;;;;;4932721;29;20471;-86
2020/12/22 05:32:30;;;;;;;0.57;0.30;;;11.60;99.90;;;;;;4929539;29;20443;-85
2020/12/22 05:34:56;;;;;;;0.40;0.30;;;11.60;99.90;;;;;;4942885;28;20607;-91
2020/12/22 05:37:24;;;;;;;0.40;0.37;;;11.50;99.90;;;;;;4922673;29;21019;-89
2020/12/22 05:39:51;;;;;;;0.63;0.20;;;11.50;99.90;;;;;;4928053;29;20678;-89
2020/12/22 05:42:18;;;;;;;0.60;0.23;;;11.50;99.90;;;;;;4930874;29;20440;-90
2020/12/22 05:44:51;;;;;;;0.40;0.40;;;11.50;99.90;;;;;;4930742;29;20459;-90
2020/12/22 05:47:19;;;;;;;0.70;0.30;;;11.50;99.90;;;;;;4931830;29;20449;-89
2020/12/22 05:50:12;;;;;;;0.40;0.30;;;11.60;99.90;;;;;;4929211;29;20479;-90
2020/12/22 05:52:42;;;;;;;0.40;0.30;;;11.70;99.90;;;;;;4927654;29;20527;-88
2020/12/22 05:55:10;;;;;;;0.30;0.30;;;11.70;99.90;;;;;;4945538;28;20450;-88
2020/12/22 05:57:35;;;;;;;0.70;0.50;;;11.80;99.90;;;;;;4930305;29;20435;-89
2020/12/22 06:00:16;;;;;;;0.50;0.50;;;11.70;99.90;;;;;;4944613;28;20498;-90
2020/12/22 06:02:42;;;;;;;1.80;0.40;;;11.80;99.90;;;;;;4945222;28;20179;-91
2020/12/22 06:05:08;;;;;;;0.50;0.50;;;11.90;99.90;;;;;;4930203;29;20452;-89
2020/12/22 06:07:34;;;;;;;1.70;0.60;;;11.80;99.90;;;;;;4931013;29;20446;-89
2020/12/22 06:10:00;;;;;;;0.40;0.40;;;11.90;99.90;;;;;;4945235;28;20400;-89
2020/12/22 06:12:26;;;;;;;0.40;0.40;;;11.90;99.90;;;;;;4929113;29;20534;-89
2020/12/22 06:14:55;;;;;;;0.40;0.40;;;12.00;99.90;;;;;;4946218;28;20195;-89
2020/12/22 06:17:22;;;;;;;0.60;0.60;;;12.00;99.90;;;;;;4930270;29;20571;-91
2020/12/22 06:19:48;;;;;;;3.87;0.60;;;12.00;99.90;;;;;;4931350;29;20471;-87
2020/12/22 06:22:18;;;;;;;0.40;0.40;;;12.00;99.90;;;;;;4929926;29;20442;-89
2020/12/22 06:24:45;;;;;;;0.70;0.70;;;11.90;99.90;;;;;;4931548;29;20451;-89
2020/12/22 06:27:13;;;;;;;0.50;0.47;;;12.00;99.90;;;;;;4930505;29;20847;-91
2020/12/22 06:29:46;;;;;;;0.83;0.30;;;12.00;99.90;;;;;;4928600;29;20463;-89
2020/12/22 06:32:26;;;;;;;0.50;0.40;;;12.10;99.90;;;;;;4929761;29;20466;-88
2020/12/22 06:34:54;;;;;;;0.40;0.40;;;12.20;99.90;;;;;;4931149;29;20447;-88
2020/12/22 06:37:47;;;;;;;0.77;0.43;;;12.20;99.90;;;;;;4930811;29;20427;-88
2020/12/22 06:40:12;;;;;;;1.23;0.50;;;12.20;99.90;;;;;;4926239;29;21047;-90
2020/12/22 06:42:44;;;;;;;0.77;0.40;;;12.30;99.90;;;;;;4931044;29;20440;-89
2020/12/22 06:45:39;;;;;;;0.50;0.50;;;12.30;99.90;;;;;;4929224;29;20207;-88
2020/12/22 06:48:05;;;;;;;0.97;0.30;;;12.30;99.90;;;;;;4920344;29;20443;-87
2020/12/22 06:50:47;;;;;;;0.40;0.40;;;12.40;99.90;;;;;;4916814;29;20458;-85
2020/12/22 06:53:34;;;;;;;0.30;0.30;;;12.40;99.90;;;;;;4930062;29;20222;-84
2020/12/22 06:56:00;;;;;;;0.30;0.30;;;12.30;99.90;;;;;;4925152;29;20443;-84
2020/12/22 06:58:38;;;;;;;0.37;0.37;;;12.30;99.90;;;;;;4924778;29;20454;-82
2020/12/22 07:01:25;;;;;;;0.60;0.30;;;12.30;99.90;;;;;;4941291;28;20452;-81
2020/12/22 07:03:52;;;;;;;2.00;0.40;;;12.20;99.90;;;;;;4940898;28;20443;-82
2020/12/22 07:06:44;;;;;;;0.40;0.30;;;12.20;99.90;;;;;;4925278;29;20419;-83
2020/12/22 07:09:29;;;;;;;0.40;0.40;;;12.20;99.90;;;;;;4920897;29;21147;-83
2020/12/22 07:12:10;;;;;;;0.63;0.40;;;12.20;99.90;;;;;;4925617;29;20443;-83
2020/12/22 07:14:45;;;;;;;0.30;0.30;;;12.10;99.90;;;;;;4943967;28;20831;-83
2020/12/22 07:17:16;;;;;;;0.40;0.40;;;12.10;99.90;;;;;;4945296;28;20474;-83
2020/12/22 07:19:46;;;;;;;0.40;0.40;;;12.20;99.90;;;;;;4941754;28;20509;-82
2020/12/22 07:22:14;;;;;;;1.13;0.50;;;12.20;99.90;;;;;;4929438;28;20447;-81
2020/12/22 07:24:40;;;;;;;1.30;0.73;;;12.20;99.90;;;;;;4930556;29;20452;-82
2020/12/22 07:27:07;;;;;;;1.00;0.73;;;12.10;99.90;;;;;;4930346;29;20975;-82
2020/12/22 07:29:39;;;;;;;1.40;0.80;;;12.20;99.90;;;;;;4942089;28;20552;-83
2020/12/22 07:32:05;;;;;;;1.50;1.10;;;12.20;99.90;;;;;;4927626;29;20451;-84
2020/12/22 07:34:32;;;;;;;1.23;0.83;;;12.20;99.90;;;;;;4927473;29;20848;-84
2020/12/22 07:37:09;;;;;;;8.77;8.00;;;12.30;99.90;;;;;;4926694;29;20490;-85
2020/12/22 07:39:35;;;;;;;6.17;5.57;;;12.30;99.90;;;;;;4926623;29;20474;-84
2020/12/22 07:42:16;;;;;;;1.63;0.80;;;12.30;99.90;;;;;;4927989;29;20439;-84
2020/12/22 07:44:43;;;;;;;1.07;0.97;;;12.30;99.90;;;;;;4926779;29;20530;-84
2020/12/22 07:47:10;;;;;;;10.17;8.70;;;12.40;99.90;;;;;;4926002;29;20447;-83
2020/12/22 07:49:41;;;;;;;2.07;1.10;;;12.40;99.90;;;;;;4943496;29;20435;-85
2020/12/22 07:52:06;;;;;;;1.00;0.93;;;12.40;99.90;;;;;;4928073;29;20526;-86
2020/12/22 07:54:32;;;;;;;1.00;1.00;;;12.40;99.90;;;;;;4922496;29;20474;-85
2020/12/22 07:57:00;;;;;;;1.27;1.00;;;12.40;99.90;;;;;;4927211;29;20567;-87
2020/12/22 07:59:27;;;;;;;3.73;0.90;;;12.40;99.90;;;;;;4924106;29;20479;-85
2020/12/22 08:01:53;;;;;;;1.10;0.70;;;12.50;99.90;;;;;;4927285;29;20518;-85
2020/12/22 08:04:21;;;;;;;0.73;0.60;;;12.50;99.90;;;;;;4925356;29;20452;-86
2020/12/22 08:06:55;;;;;;;0.70;0.67;;;12.50;99.90;;;;;;4924980;29;20792;-86
2020/12/22 08:09:31;;;;;;;0.60;0.60;;;12.50;99.90;;;;;;4941716;28;20458;-86
2020/12/22 08:12:09;;;;;;;1.60;1.13;;;12.60;99.90;;;;;;4929556;29;20458;-87
2020/12/22 08:14:44;;;;;;;0.93;0.83;;;12.60;99.90;;;;;;4927033;29;20481;-87
2020/12/22 08:17:19;;;;;;;0.70;0.70;;;12.60;99.90;;;;;;4927445;29;20505;-86
2020/12/22 08:19:46;;;;;;;0.63;0.63;;;12.60;99.90;;;;;;4923943;29;20494;-85
2020/12/22 08:22:19;;;;;;;0.60;0.60;;;12.70;99.90;;;;;;4927500;29;20440;-85
2020/12/22 08:24:45;;;;;;;0.70;0.70;;;12.70;99.90;;;;;;4923873;29;20482;-85
2020/12/22 08:27:12;;;;;;;0.60;0.60;;;12.70;99.90;;;;;;4925573;29;20538;-85
2020/12/22 08:29:39;;;;;;;0.60;0.60;;;12.80;99.90;;;;;;4925223;29;21012;-84
2020/12/22 08:32:05;;;;;;;0.67;0.50;;;12.90;99.90;;;;;;4925712;29;20447;-86
2020/12/22 08:34:31;;;;;;;0.50;0.50;;;12.80;99.90;;;;;;4927584;29;20510;-86
2020/12/22 08:36:57;;;;;;;0.60;0.60;;;12.80;99.90;;;;;;4927103;29;20923;-86
2020/12/22 08:39:27;;;;;;;0.80;0.80;;;12.80;99.90;;;;;;4927633;29;20483;-85
2020/12/22 08:41:55;;;;;;;0.57;0.50;;;12.80;99.90;;;;;;4927066;29;20901;-84
2020/12/22 08:44:24;;;;;;;0.67;0.50;;;12.80;99.90;;;;;;4938973;29;21452;-86
2020/12/22 08:46:51;;;;;;;0.60;0.60;;;12.80;99.90;;;;;;4929772;29;20557;-85
2020/12/22 08:49:21;;;;;;;1.80;0.50;;;12.90;99.90;;;;;;4924708;29;20822;-85
2020/12/22 08:51:48;;;;;;;0.80;0.50;;;12.90;99.90;;;;;;4926909;29;20879;-85
2020/12/22 08:54:14;;;;;;;0.80;0.67;;;12.90;99.90;;;;;;4941982;28;20483;-84
2020/12/22 08:56:41;;;;;;;0.87;0.73;;;12.90;99.90;;;;;;4940799;28;20475;-85
2020/12/22 08:59:09;;;;;;;0.60;0.60;;;12.90;99.90;;;;;;4939962;28;21061;-87
2020/12/22 09:01:39;;;;;;;1.30;0.80;;;12.90;99.90;;;;;;4926510;29;20800;-86
2020/12/22 09:04:04;;;;;;;0.40;0.40;;;13.00;99.90;;;;;;4941457;28;20443;-87
2020/12/22 09:06:47;;;;;;;0.73;0.73;;;13.10;99.90;;;;;;4926749;29;20439;-85
2020/12/22 09:09:30;;;;;;;0.60;0.57;;;13.20;99.90;;;;;;4939350;28;20678;-87
2020/12/22 09:12:10;;;;;;;0.40;0.40;;;13.20;99.90;;;;;;4926589;29;20534;-85
2020/12/22 09:14:45;;;;;;;0.90;0.50;;;13.30;99.90;;;;;;4925048;29;20550;-87
2020/12/22 09:17:12;;;;;;;0.50;0.50;;;13.30;99.90;;;;;;4925868;29;20856;-85
2020/12/22 09:19:49;;;;;;;0.60;0.40;;;13.20;99.90;;;;;;4927199;29;20467;-90
2020/12/22 09:22:28;;;;;;;0.80;0.80;;;13.20;99.90;;;;;;4927019;29;20443;-88
2020/12/22 09:24:56;;;;;;;3.10;1.20;;;13.10;99.90;;;;;;4926461;29;20486;-89
2020/12/22 09:27:37;;;;;;;1.13;0.80;;;13.00;99.90;;;;;;4926773;29;20430;-88
2020/12/22 09:30:08;;;;;;;2.10;0.80;;;12.80;99.90;;;;;;4932808;28;20451;-89
2020/12/22 09:32:37;;;;;;;1.37;0.60;;;12.70;99.90;;;;;;4924003;29;20650;-89
2020/12/22 09:35:03;;;;;;;0.47;0.30;;;12.60;99.90;;;;;;4923606;29;20813;-89
2020/12/22 09:37:33;;;;;;;0.40;0.40;;;12.60;99.90;;;;;;4921055;29;20527;-89
2020/12/22 09:40:01;;;;;;;0.30;0.30;;;12.50;99.90;;;;;;4922755;29;20487;-88
2020/12/22 09:42:28;;;;;;;0.60;0.40;;;12.40;99.90;;;;;;4920191;29;20446;-87
2020/12/22 09:44:54;;;;;;;0.70;0.40;;;12.40;99.90;;;;;;4923751;29;20503;-89
2020/12/22 09:47:20;;;;;;;0.47;0.40;;;12.40;99.90;;;;;;4923174;29;21027;-88
2020/12/22 09:49:46;;;;;;;0.50;0.50;;;12.40;99.90;;;;;;4923793;29;22476;-89
2020/12/22 09:52:12;;;;;;;0.50;0.50;;;12.40;99.90;;;;;;4938316;28;20188;-85
2020/12/22 09:54:38;;;;;;;0.73;0.57;;;12.30;99.90;;;;;;4926860;29;20584;-86
2020/12/22 09:57:04;;;;;;;0.40;0.40;;;12.30;99.90;;;;;;4923583;29;20455;-87
2020/12/22 09:59:30;;;;;;;0.40;0.40;;;12.40;99.90;;;;;;4924775;29;20231;-86
2020/12/22 10:01:58;;;;;;;0.97;0.73;;;12.50;99.90;;;;;;4923940;29;20192;-89
2020/12/22 10:04:24;;;;;;;0.50;0.50;;;12.60;99.90;;;;;;4924894;29;20941;-90
2020/12/22 10:07:03;;;;;;;0.40;0.40;;;12.70;99.90;;;;;;4926006;29;20907;-89
2020/12/22 10:09:29;;;;;;;0.40;0.37;;;12.70;99.90;;;;;;4939760;28;20492;-87
2020/12/22 10:11:57;;;;;;;1.43;0.50;;;12.80;99.90;;;;;;4941852;28;20550;-90
2020/12/22 10:17:02;;;;;;;3.27;0.60;;;12.90;99.90;;;;;;4926720;29;20965;-89
2020/12/22 10:19:31;;;;;;;1.90;0.50;;;13.00;99.90;;;;;;4923201;29;21046;-88
2020/12/22 10:22:11;;;;;;;1.50;1.27;;;13.00;99.90;;;;;;4922867;29;20881;-89
2020/12/22 10:24:41;;;;;;;1.33;1.23;;;13.10;99.90;;;;;;4927017;28;20458;-89
2020/12/22 10:27:12;;;;;;;1.97;1.00;;;13.10;99.90;;;;;;4925257;29;20855;-89
2020/12/22 10:29:38;;;;;;;0.70;0.70;;;13.20;99.90;;;;;;4923908;29;21014;-88
2020/12/22 10:32:04;;;;;;;0.80;0.57;;;13.20;99.90;;;;;;4925337;29;20431;-88
2020/12/22 10:34:32;;;;;;;0.47;0.47;;;13.20;99.90;;;;;;4924103;29;20253;-88
2020/12/22 10:37:26;;;;;;;1.13;0.77;;;13.20;99.90;;;;;;4919835;29;20208;-89
2020/12/22 10:39:54;;;;;;;1.17;0.70;;;13.40;99.90;;;;;;4934455;28;20475;-88
2020/12/22 10:42:29;;;;;;;0.70;0.70;;;13.40;99.90;;;;;;4940420;28;20466;-89
2020/12/22 10:44:54;;;;;;;0.57;0.57;;;13.40;99.90;;;;;;4922551;29;20539;-87
2020/12/22 10:47:20;;;;;;;0.53;0.50;;;13.50;99.90;;;;;;4923872;29;20526;-90
2020/12/22 10:49:48;;;;;;;0.63;0.60;;;13.50;99.90;;;;;;4931220;28;20195;-87
2020/12/22 10:52:15;;;;;;;14.20;12.97;;;13.60;99.90;;;;;;4919953;28;20485;-87
2020/12/22 10:54:43;;;;;;;5.30;4.93;;;13.70;99.90;;;;;;4923893;29;20934;-88
2020/12/22 10:57:09;;;;;;;0.50;0.50;;;13.60;99.90;;;;;;4926126;29;20455;-85
2020/12/22 10:59:42;;;;;;;0.30;0.30;;;13.70;99.90;;;;;;4924493;29;20478;-86
2020/12/22 11:04:38;;;;;;;0.50;0.50;;;13.60;99.90;;;;;;4913510;29;20551;-92
2020/12/22 11:07:28;;;;;;;0.50;0.50;;;13.60;99.90;;;;;;4915099;29;20482;-93
2020/12/22 11:09:54;;;;;;;0.60;0.47;;;13.60;99.90;;;;;;4922592;29;20709;-93
2020/12/22 11:12:20;;;;;;;1.00;0.40;;;13.60;99.90;;;;;;4918091;29;20455;-92
2020/12/22 11:14:46;;;;;;;1.07;0.40;;;13.60;99.90;;;;;;4919296;29;21146;-92
2020/12/22 11:17:11;;;;;;;1.10;1.00;;;13.50;99.90;;;;;;4921996;29;20455;-90
2020/12/22 11:19:40;;;;;;;0.90;0.60;;;13.50;99.90;;;;;;4916100;29;20230;-92
2020/12/22 11:22:24;;;;;;;0.60;0.60;;;13.50;99.90;;;;;;4917485;28;20194;-89
2020/12/22 11:25:06;;;;;;;0.30;0.30;;;13.50;99.90;;;;;;4941600;28;20467;-96
2020/12/22 11:30:07;;;;;;;1.27;0.50;;;13.40;99.90;;;;;;4980993;23;20485;-96
2020/12/22 11:35:09;;;;;;;0.50;0.47;;;13.40;99.90;;;;;;5249194;23;20501;-96
2020/12/22 11:40:13;;;;;;;1.47;0.60;;;13.50;99.90;;;;;;3082711;26;21282;-95
2020/12/22 11:42:38;;;;;;;0.40;0.40;;;13.50;99.90;;;;;;4934024;28;21007;-87
2020/12/22 11:45:07;;;;;;;0.40;0.40;;;13.50;99.90;;;;;;4938417;28;20551;-87
2020/12/22 11:47:34;;;;;;;0.87;0.80;;;13.50;99.90;;;;;;4941908;28;20703;-85
2020/12/22 11:49:59;;;;;;;0.70;0.53;;;13.60;99.90;;;;;;4939856;28;20500;-86
2020/12/22 11:52:25;;;;;;;0.70;0.60;;;13.70;99.90;;;;;;4937926;28;20530;-86
2020/12/22 11:54:51;;;;;;;1.43;0.80;;;13.60;99.90;;;;;;4942114;28;21062;-85
2020/12/22 11:57:16;;;;;;;0.50;0.50;;;13.70;99.90;;;;;;4939510;28;20185;-82
2020/12/22 11:59:42;;;;;;;0.80;0.60;;;13.70;99.90;;;;;;4939781;28;20222;-83
2020/12/22 12:02:08;;;;;;;0.50;0.50;;;13.80;99.90;;;;;;4944238;28;20214;-83
2020/12/22 12:04:34;;;;;;;0.40;0.30;;;13.80;99.90;;;;;;4948388;28;20202;-83
2020/12/22 12:07:00;;;;;;;0.73;0.43;;;13.80;99.90;;;;;;4946506;28;20833;-82
2020/12/22 12:09:26;;;;;;;0.43;0.43;;;13.70;99.90;;;;;;4951433;28;21029;-82
2020/12/22 12:11:51;;;;;;;1.03;0.40;;;13.80;99.90;;;;;;4944360;28;20202;-82
2020/12/22 12:14:18;;;;;;;0.43;0.37;;;13.80;99.90;;;;;;4940584;28;20245;-83
2020/12/22 12:16:50;;;;;;;0.50;0.50;;;13.80;99.90;;;;;;4940812;28;20195;-83
2020/12/22 12:19:18;;;;;;;0.50;0.50;;;13.90;99.90;;;;;;4943555;28;20772;-82
2020/12/22 12:21:44;;;;;;;1.50;0.60;;;13.90;99.90;;;;;;4942492;28;20444;-83
2020/12/22 12:24:09;;;;;;;0.40;0.40;;;14.00;99.90;;;;;;4943911;28;20465;-82
2020/12/22 12:26:36;;;;;;;0.60;0.60;;;14.10;99.90;;;;;;4945437;28;20195;-88
2020/12/22 12:29:02;;;;;;;0.60;0.60;;;14.10;99.90;;;;;;4947332;28;20261;-88
2020/12/22 12:31:30;;;;;;;1.43;1.27;;;14.00;99.90;;;;;;4940458;28;20810;-90
2020/12/22 12:33:57;;;;;;;0.43;0.40;;;13.90;99.90;;;;;;4943328;28;20493;-89
2020/12/22 12:36:22;;;;;;;0.60;0.50;;;13.90;99.90;;;;;;4948024;28;20550;-89
2020/12/22 12:38:48;;;;;;;0.50;0.40;;;13.80;99.90;;;;;;4946391;28;20711;-89
2020/12/22 12:41:14;;;;;;;0.43;0.37;;;13.70;99.90;;;;;;4944786;28;20198;-90
2020/12/22 12:43:47;;;;;;;1.40;0.47;;;13.70;99.90;;;;;;4945244;28;20278;-90
2020/12/22 12:46:13;;;;;;;2.60;0.50;;;13.70;99.90;;;;;;4954187;28;20195;-88
2020/12/22 12:48:41;;;;;;;1.53;0.40;;;13.60;99.90;;;;;;4959024;28;20481;-87
2020/12/22 12:51:10;;;;;;;1.07;0.60;;;13.70;99.90;;;;;;4939815;28;20446;-85
2020/12/22 12:53:37;;;;;;;0.70;0.50;;;13.60;99.90;;;;;;4959233;28;20443;-86
2020/12/22 12:56:04;;;;;;;0.80;0.70;;;13.50;99.90;;;;;;4938429;28;20670;-87
2020/12/22 12:58:31;;;;;;;1.73;0.70;;;13.50;99.90;;;;;;4941564;28;20451;-85
2020/12/22 13:00:56;;;;;;;1.30;1.00;;;13.50;99.90;;;;;;4954014;28;20535;-86
2020/12/22 13:03:30;;;;;;;0.57;0.57;;;13.40;99.90;;;;;;4942617;28;20518;-83
2020/12/22 13:05:56;;;;;;;0.70;0.70;;;13.20;99.90;;;;;;4940979;28;21034;-83
2020/12/22 13:08:23;;;;;;;1.20;0.70;;;13.20;99.90;;;;;;4943273;28;20191;-90
2020/12/22 13:10:50;;;;;;;0.93;0.87;;;13.20;99.90;;;;;;4953903;28;20877;-89
2020/12/22 13:16:05;;;;;;;0.80;0.80;;;13.20;99.90;;;;;;4937482;28;20463;-85
2020/12/22 13:18:31;;;;;;;1.10;0.97;;;13.30;99.90;;;;;;4937699;28;20447;-84
2020/12/22 13:20:57;;;;;;;1.57;0.60;;;13.30;99.90;;;;;;4940761;28;20493;-87
2020/12/22 13:23:24;;;;;;;3.00;0.80;;;13.30;99.90;;;;;;4939517;28;20199;-87
2020/12/22 13:25:50;;;;;;;0.80;0.80;;;13.30;99.90;;;;;;4942290;28;20974;-87